Terminal Aerodrome Forecast
Issued by NWS

Home | Current Version | Previous Version | Text Only | Print | Product List | Glossary On
Versions: 1 2 3 4 5 6 7 8 9 10 11 12 13 14 15 16 17 18 19 20 21 22
000
FTUS45 KTFX 282333
TAFGTF
TAF
KGTF 282333Z 2900/2924 09011KT P6SM -SHRA SCT025 OVC070
     FM290400 15006KT P6SM VCFG SCT007 OVC012
      TEMPO 2911/2915 2SM BR OVC007
     FM291500 19008KT P6SM SCT020 BKN035
     FM291800 14007KT P6SM BKN080=

USA.gov is the U.S. government's official web portal to all federal, state and local government web resources and services.